sensor_id;sensor_type;location;lat;lon;timestamp;temperature;humidity
21039;DHT22;10678;51.002;4.786;2022-11-15T00:01:09;11.30;99.90
21039;DHT22;10678;51.002;4.786;2022-11-15T00:03:35;11.40;99.90
21039;DHT22;10678;51.002;4.786;2022-11-15T00:06:04;11.40;99.90
21039;DHT22;10678;51.002;4.786;2022-11-15T00:08:31;11.40;99.90
21039;DHT22;10678;51.002;4.786;2022-11-15T00:10:58;11.40;99.90
21039;DHT22;10678;51.002;4.786;2022-11-15T00:13:24;11.40;99.90
21039;DHT22;10678;51.002;4.786;2022-11-15T00:15:50;11.50;99.90
21039;DHT22;10678;51.002;4.786;2022-11-15T00:18:16;11.50;99.90
21039;DHT22;10678;51.002;4.786;2022-11-15T00:20:42;11.60;99.90
21039;DHT22;10678;51.002;4.786;2022-11-15T00:23:08;11.60;99.90
21039;DHT22;10678;51.002;4.786;2022-11-15T00:25:34;11.70;99.90
21039;DHT22;10678;51.002;4.786;2022-11-15T00:28:00;11.80;99.90
21039;DHT22;10678;51.002;4.786;2022-11-15T00:30:26;11.90;99.90
21039;DHT22;10678;51.002;4.786;2022-11-15T00:32:52;11.90;99.90
21039;DHT22;10678;51.002;4.786;2022-11-15T00:35:18;12.00;99.90
21039;DHT22;10678;51.002;4.786;2022-11-15T00:37:44;12.10;99.90
21039;DHT22;10678;51.002;4.786;2022-11-15T00:40:10;12.00;99.90
21039;DHT22;10678;51.002;4.786;2022-11-15T00:42:36;12.00;99.90
21039;DHT22;10678;51.002;4.786;2022-11-15T00:45:02;12.10;99.90
21039;DHT22;10678;51.002;4.786;2022-11-15T00:47:27;12.20;99.90
21039;DHT22;10678;51.002;4.786;2022-11-15T00:49:53;12.20;99.90
21039;DHT22;10678;51.002;4.786;2022-11-15T00:52:18;12.20;99.90
21039;DHT22;10678;51.002;4.786;2022-11-15T00:54:44;12.30;99.90
21039;DHT22;10678;51.002;4.786;2022-11-15T00:57:09;12.30;99.90
21039;DHT22;10678;51.002;4.786;2022-11-15T00:59:35;12.40;99.90
21039;DHT22;10678;51.002;4.786;2022-11-15T01:02:01;12.40;99.90
21039;DHT22;10678;51.002;4.786;2022-11-15T01:04:26;12.50;99.90
21039;DHT22;10678;51.002;4.786;2022-11-15T01:06:52;12.50;99.90
21039;DHT22;10678;51.002;4.786;2022-11-15T01:09:18;12.70;99.90
21039;DHT22;10678;51.002;4.786;2022-11-15T01:11:43;12.60;99.90
21039;DHT22;10678;51.002;4.786;2022-11-15T01:14:09;12.60;99.90
21039;DHT22;10678;51.002;4.786;2022-11-15T01:16:35;12.60;99.90
21039;DHT22;10678;51.002;4.786;2022-11-15T01:19:00;12.60;99.90
21039;DHT22;10678;51.002;4.786;2022-11-15T01:21:26;12.60;99.90
21039;DHT22;10678;51.002;4.786;2022-11-15T01:23:55;12.60;99.90
21039;DHT22;10678;51.002;4.786;2022-11-15T01:26:23;12.60;99.90
21039;DHT22;10678;51.002;4.786;2022-11-15T01:28:49;12.60;99.90
21039;DHT22;10678;51.002;4.786;2022-11-15T01:31:17;12.60;99.90
21039;DHT22;10678;51.002;4.786;2022-11-15T01:33:43;12.60;99.90
21039;DHT22;10678;51.002;4.786;2022-11-15T01:36:14;12.70;99.90
21039;DHT22;10678;51.002;4.786;2022-11-15T01:38:40;12.70;99.90
21039;DHT22;10678;51.002;4.786;2022-11-15T01:41:05;12.70;99.90
21039;DHT22;10678;51.002;4.786;2022-11-15T01:43:34;12.80;99.90
21039;DHT22;10678;51.002;4.786;2022-11-15T01:48:40;12.80;99.90
21039;DHT22;10678;51.002;4.786;2022-11-15T01:51:09;12.90;99.90
21039;DHT22;10678;51.002;4.786;2022-11-15T01:53:38;12.80;99.90
21039;DHT22;10678;51.002;4.786;2022-11-15T01:56:11;13.00;99.90
21039;DHT22;10678;51.002;4.786;2022-11-15T01:58:40;12.90;99.90
21039;DHT22;10678;51.002;4.786;2022-11-15T02:01:06;12.90;99.90
21039;DHT22;10678;51.002;4.786;2022-11-15T02:03:49;12.90;99.90
21039;DHT22;10678;51.002;4.786;2022-11-15T02:06:15;13.00;99.90
21039;DHT22;10678;51.002;4.786;2022-11-15T02:08:42;13.00;99.90
21039;DHT22;10678;51.002;4.786;2022-11-15T02:11:08;13.10;99.90
21039;DHT22;10678;51.002;4.786;2022-11-15T02:13:35;13.00;99.90
21039;DHT22;10678;51.002;4.786;2022-11-15T02:19:28;12.90;99.90
21039;DHT22;10678;51.002;4.786;2022-11-15T02:31:29;12.90;99.90
21039;DHT22;10678;51.002;4.786;2022-11-15T02:33:51;12.80;99.90
21039;DHT22;10678;51.002;4.786;2022-11-15T02:36:37;12.90;99.90
21039;DHT22;10678;51.002;4.786;2022-11-15T02:42:27;13.00;99.90
21039;DHT22;10678;51.002;4.786;2022-11-15T02:45:06;13.00;99.90
21039;DHT22;10678;51.002;4.786;2022-11-15T02:47:41;13.00;99.90
21039;DHT22;10678;51.002;4.786;2022-11-15T02:50:11;12.90;99.90
21039;DHT22;10678;51.002;4.786;2022-11-15T02:52:37;12.90;99.90
21039;DHT22;10678;51.002;4.786;2022-11-15T02:55:03;12.90;99.90
21039;DHT22;10678;51.002;4.786;2022-11-15T03:00:35;13.00;99.90
21039;DHT22;10678;51.002;4.786;2022-11-15T03:03:14;12.90;99.90
21039;DHT22;10678;51.002;4.786;2022-11-15T03:09:04;13.00;99.90
21039;DHT22;10678;51.002;4.786;2022-11-15T03:11:33;13.00;99.90
21039;DHT22;10678;51.002;4.786;2022-11-15T03:14:21;13.00;99.90
21039;DHT22;10678;51.002;4.786;2022-11-15T03:17:01;12.90;99.90
21039;DHT22;10678;51.002;4.786;2022-11-15T03:19:47;12.90;99.90
21039;DHT22;10678;51.002;4.786;2022-11-15T03:22:17;12.90;99.90
21039;DHT22;10678;51.002;4.786;2022-11-15T03:24:46;12.90;99.90
21039;DHT22;10678;51.002;4.786;2022-11-15T03:27:15;12.90;99.90
21039;DHT22;10678;51.002;4.786;2022-11-15T03:29:50;12.90;99.90
21039;DHT22;10678;51.002;4.786;2022-11-15T03:32:24;13.00;99.90
21039;DHT22;10678;51.002;4.786;2022-11-15T03:35:12;13.00;99.90
21039;DHT22;10678;51.002;4.786;2022-11-15T03:37:48;13.00;99.90
21039;DHT22;10678;51.002;4.786;2022-11-15T03:40:16;13.00;99.90
21039;DHT22;10678;51.002;4.786;2022-11-15T03:42:48;13.00;99.90
21039;DHT22;10678;51.002;4.786;2022-11-15T03:45:35;13.00;99.90
21039;DHT22;10678;51.002;4.786;2022-11-15T03:48:07;13.00;99.90
21039;DHT22;10678;51.002;4.786;2022-11-15T03:50:34;13.10;99.90
21039;DHT22;10678;51.002;4.786;2022-11-15T03:53:00;13.10;99.90
21039;DHT22;10678;51.002;4.786;2022-11-15T03:55:26;13.10;99.90
21039;DHT22;10678;51.002;4.786;2022-11-15T03:57:54;13.10;99.90
21039;DHT22;10678;51.002;4.786;2022-11-15T04:00:22;13.10;99.90
21039;DHT22;10678;51.002;4.786;2022-11-15T04:02:47;13.10;99.90
21039;DHT22;10678;51.002;4.786;2022-11-15T04:05:13;13.00;99.90
21039;DHT22;10678;51.002;4.786;2022-11-15T04:07:38;13.00;99.90
21039;DHT22;10678;51.002;4.786;2022-11-15T04:10:04;13.00;99.90
21039;DHT22;10678;51.002;4.786;2022-11-15T04:12:36;13.10;99.90
21039;DHT22;10678;51.002;4.786;2022-11-15T04:15:10;13.10;99.90
21039;DHT22;10678;51.002;4.786;2022-11-15T04:17:46;13.10;99.90
21039;DHT22;10678;51.002;4.786;2022-11-15T04:20:38;13.10;99.90
21039;DHT22;10678;51.002;4.786;2022-11-15T04:23:23;13.10;99.90
21039;DHT22;10678;51.002;4.786;2022-11-15T04:26:10;13.10;99.90
21039;DHT22;10678;51.002;4.786;2022-11-15T04:28:36;13.10;99.90
21039;DHT22;10678;51.002;4.786;2022-11-15T04:31:26;13.10;99.90
21039;DHT22;10678;51.002;4.786;2022-11-15T04:33:52;13.10;99.90
21039;DHT22;10678;51.002;4.786;2022-11-15T04:36:18;13.10;99.90
21039;DHT22;10678;51.002;4.786;2022-11-15T04:39:03;13.10;99.90
21039;DHT22;10678;51.002;4.786;2022-11-15T04:41:28;13.10;99.90
21039;DHT22;10678;51.002;4.786;2022-11-15T04:43:54;13.10;99.90
21039;DHT22;10678;51.002;4.786;2022-11-15T04:46:20;13.00;99.90
21039;DHT22;10678;51.002;4.786;2022-11-15T04:48:46;13.00;99.90
21039;DHT22;10678;51.002;4.786;2022-11-15T04:51:12;13.10;99.90
21039;DHT22;10678;51.002;4.786;2022-11-15T04:53:37;13.10;99.90
21039;DHT22;10678;51.002;4.786;2022-11-15T04:56:03;13.00;99.90
21039;DHT22;10678;51.002;4.786;2022-11-15T04:58:29;13.00;99.90
21039;DHT22;10678;51.002;4.786;2022-11-15T05:00:54;12.90;99.90
21039;DHT22;10678;51.002;4.786;2022-11-15T05:03:20;12.90;99.90
21039;DHT22;10678;51.002;4.786;2022-11-15T05:06:05;13.00;99.90
21039;DHT22;10678;51.002;4.786;2022-11-15T05:08:31;12.90;99.90
21039;DHT22;10678;51.002;4.786;2022-11-15T05:10:57;12.90;99.90
21039;DHT22;10678;51.002;4.786;2022-11-15T05:13:22;12.80;99.90
21039;DHT22;10678;51.002;4.786;2022-11-15T05:15:48;12.70;99.90
21039;DHT22;10678;51.002;4.786;2022-11-15T05:18:13;12.70;99.90
21039;DHT22;10678;51.002;4.786;2022-11-15T05:20:39;12.80;99.90
21039;DHT22;10678;51.002;4.786;2022-11-15T05:23:05;12.70;99.90
21039;DHT22;10678;51.002;4.786;2022-11-15T05:25:31;12.70;99.90
21039;DHT22;10678;51.002;4.786;2022-11-15T05:27:56;12.70;99.90
21039;DHT22;10678;51.002;4.786;2022-11-15T05:30:22;12.70;99.90
21039;DHT22;10678;51.002;4.786;2022-11-15T05:32:47;12.70;99.90
21039;DHT22;10678;51.002;4.786;2022-11-15T05:35:25;12.50;99.90
21039;DHT22;10678;51.002;4.786;2022-11-15T05:37:53;12.60;99.90
21039;DHT22;10678;51.002;4.786;2022-11-15T05:40:18;12.60;99.90
21039;DHT22;10678;51.002;4.786;2022-11-15T05:42:45;12.60;99.90
21039;DHT22;10678;51.002;4.786;2022-11-15T05:45:12;12.50;99.90
21039;DHT22;10678;51.002;4.786;2022-11-15T05:47:38;12.60;99.90
21039;DHT22;10678;51.002;4.786;2022-11-15T05:50:05;12.60;99.90
21039;DHT22;10678;51.002;4.786;2022-11-15T05:52:34;12.50;99.90
21039;DHT22;10678;51.002;4.786;2022-11-15T05:55:02;12.60;99.90
21039;DHT22;10678;51.002;4.786;2022-11-15T05:57:28;12.50;99.90
21039;DHT22;10678;51.002;4.786;2022-11-15T05:59:54;12.50;99.90
21039;DHT22;10678;51.002;4.786;2022-11-15T06:02:20;12.40;99.90
21039;DHT22;10678;51.002;4.786;2022-11-15T06:04:46;12.40;99.90
21039;DHT22;10678;51.002;4.786;2022-11-15T06:07:11;12.40;99.90
21039;DHT22;10678;51.002;4.786;2022-11-15T06:09:37;12.30;99.90
21039;DHT22;10678;51.002;4.786;2022-11-15T06:12:02;12.20;99.90
21039;DHT22;10678;51.002;4.786;2022-11-15T06:14:28;12.20;99.90
21039;DHT22;10678;51.002;4.786;2022-11-15T06:16:53;12.20;99.90
21039;DHT22;10678;51.002;4.786;2022-11-15T06:19:19;12.10;99.90
21039;DHT22;10678;51.002;4.786;2022-11-15T06:21:45;12.10;99.90
21039;DHT22;10678;51.002;4.786;2022-11-15T06:24:10;12.00;99.90
21039;DHT22;10678;51.002;4.786;2022-11-15T06:26:36;12.10;99.90
21039;DHT22;10678;51.002;4.786;2022-11-15T06:29:03;11.90;99.90
21039;DHT22;10678;51.002;4.786;2022-11-15T06:31:29;12.00;99.90
21039;DHT22;10678;51.002;4.786;2022-11-15T06:33:55;12.10;99.90
21039;DHT22;10678;51.002;4.786;2022-11-15T06:36:20;12.10;99.90
21039;DHT22;10678;51.002;4.786;2022-11-15T06:38:46;12.10;99.90
21039;DHT22;10678;51.002;4.786;2022-11-15T06:41:12;12.10;99.90
21039;DHT22;10678;51.002;4.786;2022-11-15T06:43:39;11.90;99.90
21039;DHT22;10678;51.002;4.786;2022-11-15T06:46:06;12.00;99.90
21039;DHT22;10678;51.002;4.786;2022-11-15T06:48:33;11.90;99.90
21039;DHT22;10678;51.002;4.786;2022-11-15T06:51:00;11.80;99.90
21039;DHT22;10678;51.002;4.786;2022-11-15T06:53:27;11.80;99.90
21039;DHT22;10678;51.002;4.786;2022-11-15T06:55:53;11.70;99.90
21039;DHT22;10678;51.002;4.786;2022-11-15T06:58:20;11.70;99.90
21039;DHT22;10678;51.002;4.786;2022-11-15T07:00:45;11.50;99.90
21039;DHT22;10678;51.002;4.786;2022-11-15T07:03:11;11.50;99.90
21039;DHT22;10678;51.002;4.786;2022-11-15T07:05:37;11.40;99.90
21039;DHT22;10678;51.002;4.786;2022-11-15T07:08:03;11.30;99.90
21039;DHT22;10678;51.002;4.786;2022-11-15T07:10:28;11.20;99.90
21039;DHT22;10678;51.002;4.786;2022-11-15T07:12:55;11.10;99.90
21039;DHT22;10678;51.002;4.786;2022-11-15T07:15:23;11.10;99.90
21039;DHT22;10678;51.002;4.786;2022-11-15T07:17:49;11.10;99.90
21039;DHT22;10678;51.002;4.786;2022-11-15T07:20:15;11.00;99.90
21039;DHT22;10678;51.002;4.786;2022-11-15T07:22:41;11.00;99.90
21039;DHT22;10678;51.002;4.786;2022-11-15T07:25:08;11.00;99.90
21039;DHT22;10678;51.002;4.786;2022-11-15T07:27:34;10.90;99.90
21039;DHT22;10678;51.002;4.786;2022-11-15T07:29:59;11.00;99.90
21039;DHT22;10678;51.002;4.786;2022-11-15T07:32:25;11.00;99.90
21039;DHT22;10678;51.002;4.786;2022-11-15T07:34:51;11.00;99.90
21039;DHT22;10678;51.002;4.786;2022-11-15T07:37:16;11.10;99.90
21039;DHT22;10678;51.002;4.786;2022-11-15T07:39:42;11.00;99.90
21039;DHT22;10678;51.002;4.786;2022-11-15T07:42:08;11.00;99.90
21039;DHT22;10678;51.002;4.786;2022-11-15T07:44:52;10.90;99.90
21039;DHT22;10678;51.002;4.786;2022-11-15T07:47:18;10.90;99.90
21039;DHT22;10678;51.002;4.786;2022-11-15T07:49:44;11.00;99.90
21039;DHT22;10678;51.002;4.786;2022-11-15T07:52:11;11.00;99.90
21039;DHT22;10678;51.002;4.786;2022-11-15T07:54:37;11.00;99.90
21039;DHT22;10678;51.002;4.786;2022-11-15T07:57:02;11.10;99.90
21039;DHT22;10678;51.002;4.786;2022-11-15T07:59:28;11.00;99.90
21039;DHT22;10678;51.002;4.786;2022-11-15T08:01:54;11.10;99.90
21039;DHT22;10678;51.002;4.786;2022-11-15T08:04:19;11.20;99.90
21039;DHT22;10678;51.002;4.786;2022-11-15T08:06:45;11.20;99.90
21039;DHT22;10678;51.002;4.786;2022-11-15T08:09:11;11.40;99.90
21039;DHT22;10678;51.002;4.786;2022-11-15T08:11:37;11.50;99.90
21039;DHT22;10678;51.002;4.786;2022-11-15T08:14:02;11.40;99.90
21039;DHT22;10678;51.002;4.786;2022-11-15T08:16:28;11.40;99.90
21039;DHT22;10678;51.002;4.786;2022-11-15T08:18:53;11.30;99.90
21039;DHT22;10678;51.002;4.786;2022-11-15T08:21:20;11.30;99.90
21039;DHT22;10678;51.002;4.786;2022-11-15T08:23:46;11.50;99.90
21039;DHT22;10678;51.002;4.786;2022-11-15T08:26:11;11.60;99.90
21039;DHT22;10678;51.002;4.786;2022-11-15T08:28:37;11.60;99.90
21039;DHT22;10678;51.002;4.786;2022-11-15T08:31:04;11.50;99.90
21039;DHT22;10678;51.002;4.786;2022-11-15T08:33:30;11.60;99.90
21039;DHT22;10678;51.002;4.786;2022-11-15T08:35:57;11.60;99.90
21039;DHT22;10678;51.002;4.786;2022-11-15T08:38:23;11.60;99.90
21039;DHT22;10678;51.002;4.786;2022-11-15T08:40:58;11.70;99.90
21039;DHT22;10678;51.002;4.786;2022-11-15T08:43:25;11.60;99.90
21039;DHT22;10678;51.002;4.786;2022-11-15T08:45:55;11.80;99.90
21039;DHT22;10678;51.002;4.786;2022-11-15T08:48:20;12.10;99.90
21039;DHT22;10678;51.002;4.786;2022-11-15T08:50:46;12.20;99.90
21039;DHT22;10678;51.002;4.786;2022-11-15T08:53:12;12.40;99.90
21039;DHT22;10678;51.002;4.786;2022-11-15T08:55:39;12.50;99.90
21039;DHT22;10678;51.002;4.786;2022-11-15T08:58:05;12.50;99.90
21039;DHT22;10678;51.002;4.786;2022-11-15T09:00:30;12.70;99.90
21039;DHT22;10678;51.002;4.786;2022-11-15T09:02:56;12.80;99.90
21039;DHT22;10678;51.002;4.786;2022-11-15T09:05:22;12.80;99.90
21039;DHT22;10678;51.002;4.786;2022-11-15T09:07:47;12.80;99.90
21039;DHT22;10678;51.002;4.786;2022-11-15T09:10:17;12.80;99.90
21039;DHT22;10678;51.002;4.786;2022-11-15T09:12:43;12.90;99.90
21039;DHT22;10678;51.002;4.786;2022-11-15T09:15:09;12.60;99.90
21039;DHT22;10678;51.002;4.786;2022-11-15T09:17:34;12.60;99.90
21039;DHT22;10678;51.002;4.786;2022-11-15T09:20:00;12.60;99.90
21039;DHT22;10678;51.002;4.786;2022-11-15T09:22:25;12.80;99.90
21039;DHT22;10678;51.002;4.786;2022-11-15T09:24:51;13.00;99.90
21039;DHT22;10678;51.002;4.786;2022-11-15T09:27:17;13.10;99.90
21039;DHT22;10678;51.002;4.786;2022-11-15T09:29:42;13.10;99.90
21039;DHT22;10678;51.002;4.786;2022-11-15T09:32:08;13.20;99.90
21039;DHT22;10678;51.002;4.786;2022-11-15T09:34:34;13.30;99.90
21039;DHT22;10678;51.002;4.786;2022-11-15T09:37:00;13.40;99.90
21039;DHT22;10678;51.002;4.786;2022-11-15T09:39:25;13.60;99.90
21039;DHT22;10678;51.002;4.786;2022-11-15T09:50:13;13.30;99.90
21039;DHT22;10678;51.002;4.786;2022-11-15T09:52:42;13.30;99.90
21039;DHT22;10678;51.002;4.786;2022-11-15T09:55:12;13.30;99.90
21039;DHT22;10678;51.002;4.786;2022-11-15T09:57:44;13.20;99.90
21039;DHT22;10678;51.002;4.786;2022-11-15T10:03:09;13.40;99.90
21039;DHT22;10678;51.002;4.786;2022-11-15T10:05:43;13.40;99.90
21039;DHT22;10678;51.002;4.786;2022-11-15T10:11:09;13.70;99.90
21039;DHT22;10678;51.002;4.786;2022-11-15T10:13:39;13.50;99.90
21039;DHT22;10678;51.002;4.786;2022-11-15T10:19:35;13.90;99.90
21039;DHT22;10678;51.002;4.786;2022-11-15T10:27:34;13.90;99.90
21039;DHT22;10678;51.002;4.786;2022-11-15T10:30:00;14.30;99.90
21039;DHT22;10678;51.002;4.786;2022-11-15T10:32:26;14.60;99.90
21039;DHT22;10678;51.002;4.786;2022-11-15T10:34:52;14.90;99.90
21039;DHT22;10678;51.002;4.786;2022-11-15T10:37:29;15.40;99.90
21039;DHT22;10678;51.002;4.786;2022-11-15T10:42:41;15.70;99.90
21039;DHT22;10678;51.002;4.786;2022-11-15T10:45:30;15.50;99.90
21039;DHT22;10678;51.002;4.786;2022-11-15T10:50:37;15.10;99.90
21039;DHT22;10678;51.002;4.786;2022-11-15T10:53:04;15.10;99.90
21039;DHT22;10678;51.002;4.786;2022-11-15T10:55:39;15.50;99.90
21039;DHT22;10678;51.002;4.786;2022-11-15T11:00:46;15.50;99.90
21039;DHT22;10678;51.002;4.786;2022-11-15T11:06:03;15.90;99.90
21039;DHT22;10678;51.002;4.786;2022-11-15T11:08:29;16.00;99.90
21039;DHT22;10678;51.002;4.786;2022-11-15T11:11:00;15.90;99.90
21039;DHT22;10678;51.002;4.786;2022-11-15T11:13:38;15.80;99.90
21039;DHT22;10678;51.002;4.786;2022-11-15T11:16:22;15.50;99.90
21039;DHT22;10678;51.002;4.786;2022-11-15T11:36:01;15.30;99.90
21039;DHT22;10678;51.002;4.786;2022-11-15T11:52:34;15.60;99.90
21039;DHT22;10678;51.002;4.786;2022-11-15T11:55:31;15.60;99.90
21039;DHT22;10678;51.002;4.786;2022-11-15T11:58:14;15.60;99.90
21039;DHT22;10678;51.002;4.786;2022-11-15T12:03:55;15.10;99.90
21039;DHT22;10678;51.002;4.786;2022-11-15T12:07:01;15.00;99.90
21039;DHT22;10678;51.002;4.786;2022-11-15T12:12:23;14.90;99.90
21039;DHT22;10678;51.002;4.786;2022-11-15T12:17:33;15.10;99.90
21039;DHT22;10678;51.002;4.786;2022-11-15T12:20:02;15.10;99.90
21039;DHT22;10678;51.002;4.786;2022-11-15T12:22:41;15.00;99.90
21039;DHT22;10678;51.002;4.786;2022-11-15T12:25:25;15.00;99.90
21039;DHT22;10678;51.002;4.786;2022-11-15T12:28:01;15.00;99.90
21039;DHT22;10678;51.002;4.786;2022-11-15T12:31:05;15.10;99.90
21039;DHT22;10678;51.002;4.786;2022-11-15T12:33:39;15.20;99.90
21039;DHT22;10678;51.002;4.786;2022-11-15T12:36:12;15.20;99.90
21039;DHT22;10678;51.002;4.786;2022-11-15T12:39:00;15.20;99.90
21039;DHT22;10678;51.002;4.786;2022-11-15T12:41:27;15.40;99.90
21039;DHT22;10678;51.002;4.786;2022-11-15T12:43:53;15.10;99.90
21039;DHT22;10678;51.002;4.786;2022-11-15T13:17:54;15.00;99.90
21039;DHT22;10678;51.002;4.786;2022-11-15T13:20:21;15.10;99.90
21039;DHT22;10678;51.002;4.786;2022-11-15T13:28:03;15.40;99.90
21039;DHT22;10678;51.002;4.786;2022-11-15T13:30:35;15.30;99.90
21039;DHT22;10678;51.002;4.786;2022-11-15T13:33:10;15.40;99.90
21039;DHT22;10678;51.002;4.786;2022-11-15T13:35:39;15.30;99.90
21039;DHT22;10678;51.002;4.786;2022-11-15T13:38:05;15.30;99.90
21039;DHT22;10678;51.002;4.786;2022-11-15T13:40:36;15.30;99.90
21039;DHT22;10678;51.002;4.786;2022-11-15T13:46:03;15.30;99.90
21039;DHT22;10678;51.002;4.786;2022-11-15T13:48:29;15.30;99.90
21039;DHT22;10678;51.002;4.786;2022-11-15T13:50:56;15.30;99.90
21039;DHT22;10678;51.002;4.786;2022-11-15T13:53:22;15.10;99.90
21039;DHT22;10678;51.002;4.786;2022-11-15T13:55:49;15.00;99.90
21039;DHT22;10678;51.002;4.786;2022-11-15T13:58:15;14.90;99.90
21039;DHT22;10678;51.002;4.786;2022-11-15T14:00:44;14.90;99.90
21039;DHT22;10678;51.002;4.786;2022-11-15T14:03:18;15.00;99.90
21039;DHT22;10678;51.002;4.786;2022-11-15T14:06:01;15.00;99.90
21039;DHT22;10678;51.002;4.786;2022-11-15T14:08:27;15.00;99.90
21039;DHT22;10678;51.002;4.786;2022-11-15T14:11:25;14.90;99.90
21039;DHT22;10678;51.002;4.786;2022-11-15T14:16:40;14.90;99.90
21039;DHT22;10678;51.002;4.786;2022-11-15T14:19:13;14.70;99.90
21039;DHT22;10678;51.002;4.786;2022-11-15T14:22:19;14.60;99.90
21039;DHT22;10678;51.002;4.786;2022-11-15T14:27:32;14.50;99.90
21039;DHT22;10678;51.002;4.786;2022-11-15T14:29:59;14.50;99.90
21039;DHT22;10678;51.002;4.786;2022-11-15T14:32:27;14.50;99.90
21039;DHT22;10678;51.002;4.786;2022-11-15T14:35:01;14.40;99.90
21039;DHT22;10678;51.002;4.786;2022-11-15T14:37:30;14.50;99.90
21039;DHT22;10678;51.002;4.786;2022-11-15T14:39:59;14.60;99.90
21039;DHT22;10678;51.002;4.786;2022-11-15T14:42:24;14.50;99.90
21039;DHT22;10678;51.002;4.786;2022-11-15T14:44:51;14.50;99.90
21039;DHT22;10678;51.002;4.786;2022-11-15T14:47:17;14.60;99.90
21039;DHT22;10678;51.002;4.786;2022-11-15T14:49:43;14.70;99.90
21039;DHT22;10678;51.002;4.786;2022-11-15T14:52:32;14.70;99.90
21039;DHT22;10678;51.002;4.786;2022-11-15T14:55:01;14.60;99.90
21039;DHT22;10678;51.002;4.786;2022-11-15T14:57:28;14.50;99.90
21039;DHT22;10678;51.002;4.786;2022-11-15T14:59:53;14.40;99.90
21039;DHT22;10678;51.002;4.786;2022-11-15T15:02:24;14.40;99.90
21039;DHT22;10678;51.002;4.786;2022-11-15T15:04:50;14.40;99.90
21039;DHT22;10678;51.002;4.786;2022-11-15T15:07:16;14.30;99.90
21039;DHT22;10678;51.002;4.786;2022-11-15T15:09:43;14.20;99.90
21039;DHT22;10678;51.002;4.786;2022-11-15T15:12:20;14.20;99.90
21039;DHT22;10678;51.002;4.786;2022-11-15T15:14:47;14.10;99.90
21039;DHT22;10678;51.002;4.786;2022-11-15T15:17:14;14.00;99.90
21039;DHT22;10678;51.002;4.786;2022-11-15T15:19:39;13.90;99.90
21039;DHT22;10678;51.002;4.786;2022-11-15T15:22:05;13.80;99.90
21039;DHT22;10678;51.002;4.786;2022-11-15T15:24:31;13.70;99.90
21039;DHT22;10678;51.002;4.786;2022-11-15T15:26:57;13.70;99.90
21039;DHT22;10678;51.002;4.786;2022-11-15T15:29:22;13.60;99.90
21039;DHT22;10678;51.002;4.786;2022-11-15T15:31:48;13.60;99.90
21039;DHT22;10678;51.002;4.786;2022-11-15T15:34:13;13.70;99.90
21039;DHT22;10678;51.002;4.786;2022-11-15T15:36:39;13.70;99.90
21039;DHT22;10678;51.002;4.786;2022-11-15T15:39:05;13.70;99.90
21039;DHT22;10678;51.002;4.786;2022-11-15T15:41:30;13.60;99.90
21039;DHT22;10678;51.002;4.786;2022-11-15T15:43:56;13.50;99.90
21039;DHT22;10678;51.002;4.786;2022-11-15T15:46:21;13.50;99.90
21039;DHT22;10678;51.002;4.786;2022-11-15T15:48:47;13.50;99.90
21039;DHT22;10678;51.002;4.786;2022-11-15T15:51:13;13.40;99.90
21039;DHT22;10678;51.002;4.786;2022-11-15T15:53:39;13.40;99.90
21039;DHT22;10678;51.002;4.786;2022-11-15T15:56:05;13.40;99.90
21039;DHT22;10678;51.002;4.786;2022-11-15T15:58:33;13.30;99.90
21039;DHT22;10678;51.002;4.786;2022-11-15T16:00:59;13.40;99.90
21039;DHT22;10678;51.002;4.786;2022-11-15T16:03:24;13.40;99.90
21039;DHT22;10678;51.002;4.786;2022-11-15T16:05:50;13.40;99.90
21039;DHT22;10678;51.002;4.786;2022-11-15T16:08:24;13.30;99.90
21039;DHT22;10678;51.002;4.786;2022-11-15T16:10:51;13.20;99.90
21039;DHT22;10678;51.002;4.786;2022-11-15T16:13:17;13.20;99.90
21039;DHT22;10678;51.002;4.786;2022-11-15T16:15:43;13.20;99.90
21039;DHT22;10678;51.002;4.786;2022-11-15T16:18:15;13.10;99.90
21039;DHT22;10678;51.002;4.786;2022-11-15T16:20:46;13.20;99.90
21039;DHT22;10678;51.002;4.786;2022-11-15T16:23:16;13.30;99.90
21039;DHT22;10678;51.002;4.786;2022-11-15T16:25:51;13.20;99.90
21039;DHT22;10678;51.002;4.786;2022-11-15T16:28:27;13.20;99.90
21039;DHT22;10678;51.002;4.786;2022-11-15T16:31:08;13.30;99.90
21039;DHT22;10678;51.002;4.786;2022-11-15T16:33:35;13.10;99.90
21039;DHT22;10678;51.002;4.786;2022-11-15T16:36:01;13.00;99.90
21039;DHT22;10678;51.002;4.786;2022-11-15T16:38:27;13.10;99.90
21039;DHT22;10678;51.002;4.786;2022-11-15T16:40:53;13.10;99.90
21039;DHT22;10678;51.002;4.786;2022-11-15T16:43:18;13.10;99.90
21039;DHT22;10678;51.002;4.786;2022-11-15T16:45:44;13.10;99.90
21039;DHT22;10678;51.002;4.786;2022-11-15T16:48:24;13.20;99.90
21039;DHT22;10678;51.002;4.786;2022-11-15T16:50:53;13.10;99.90
21039;DHT22;10678;51.002;4.786;2022-11-15T16:53:19;13.20;99.90
21039;DHT22;10678;51.002;4.786;2022-11-15T16:55:45;13.20;99.90
21039;DHT22;10678;51.002;4.786;2022-11-15T16:58:10;13.10;99.90
21039;DHT22;10678;51.002;4.786;2022-11-15T17:00:36;13.00;99.90
21039;DHT22;10678;51.002;4.786;2022-11-15T17:03:01;13.00;99.90
21039;DHT22;10678;51.002;4.786;2022-11-15T17:05:28;13.00;99.90
21039;DHT22;10678;51.002;4.786;2022-11-15T17:07:54;13.00;99.90
21039;DHT22;10678;51.002;4.786;2022-11-15T17:10:24;13.00;99.90
21039;DHT22;10678;51.002;4.786;2022-11-15T17:12:51;13.00;99.90
21039;DHT22;10678;51.002;4.786;2022-11-15T17:15:17;13.00;99.90
21039;DHT22;10678;51.002;4.786;2022-11-15T17:17:43;13.10;99.90
21039;DHT22;10678;51.002;4.786;2022-11-15T17:20:20;13.20;99.90
21039;DHT22;10678;51.002;4.786;2022-11-15T17:22:45;13.10;99.90
21039;DHT22;10678;51.002;4.786;2022-11-15T17:25:12;13.20;99.90
21039;DHT22;10678;51.002;4.786;2022-11-15T17:27:37;13.00;99.90
21039;DHT22;10678;51.002;4.786;2022-11-15T17:30:04;13.00;99.90
21039;DHT22;10678;51.002;4.786;2022-11-15T17:32:30;13.00;99.90
21039;DHT22;10678;51.002;4.786;2022-11-15T17:34:55;13.00;99.90
21039;DHT22;10678;51.002;4.786;2022-11-15T17:37:21;13.00;99.90
21039;DHT22;10678;51.002;4.786;2022-11-15T17:39:46;13.00;99.90
21039;DHT22;10678;51.002;4.786;2022-11-15T17:42:12;13.00;99.90
21039;DHT22;10678;51.002;4.786;2022-11-15T17:44:38;13.20;99.90
21039;DHT22;10678;51.002;4.786;2022-11-15T17:47:03;13.20;99.90
21039;DHT22;10678;51.002;4.786;2022-11-15T17:49:29;13.20;99.90
21039;DHT22;10678;51.002;4.786;2022-11-15T17:51:54;13.20;99.90
21039;DHT22;10678;51.002;4.786;2022-11-15T17:54:20;13.30;99.90
21039;DHT22;10678;51.002;4.786;2022-11-15T17:56:45;13.40;99.90
21039;DHT22;10678;51.002;4.786;2022-11-15T17:59:11;13.50;99.90
21039;DHT22;10678;51.002;4.786;2022-11-15T18:01:37;13.50;99.90
21039;DHT22;10678;51.002;4.786;2022-11-15T18:04:06;13.50;99.90